Terminal Aerodrome Forecast
Issued by NWS

Home | Current Version | Previous Version | Graphics & Text | Print | Product List | Glossary On
Versions: 1 2 3 4 5 6 7 8 9 10 11 12 13
000
FTUS43 KTOP 192300
TAFFOE
TAF
KFOE 192320Z 2000/2024 17011KT P6SM FEW040
     FM200100 17004KT P6SM SCT140
     FM201500 19015G22KT P6SM FEW035=

USA.gov is the U.S. government's official web portal to all federal, state and local government web resources and services.